createdAt,value
2022-11-12T00:02:11.417Z,99429.19
2022-11-12T00:05:00.368Z,99421.41
2022-11-12T00:07:49.448Z,99429.00
2022-11-12T00:10:38.576Z,99423.75
2022-11-12T00:13:27.639Z,99421.25
2022-11-12T00:16:19.023Z,99426.00
2022-11-12T00:19:08.223Z,99428.25
2022-11-12T00:21:57.228Z,99424.63
2022-11-12T00:24:46.343Z,99433.34
2022-11-12T00:27:36.106Z,99435.34
2022-11-12T00:30:25.085Z,99428.94
2022-11-12T00:33:16.861Z,99426.59
2022-11-12T00:36:05.801Z,99424.19
2022-11-12T00:38:54.875Z,99422.59
2022-11-12T00:41:43.905Z,99417.88
2022-11-12T00:44:33.086Z,99416.41
2022-11-12T00:47:22.856Z,99414.13
2022-11-12T00:50:16.121Z,99416.16
2022-11-12T00:53:05.254Z,99416.72
2022-11-12T00:55:53.756Z,99411.97
2022-11-12T00:58:42.639Z,99415.09
2022-11-12T01:01:31.747Z,99419.69
2022-11-12T01:04:21.095Z,99414.13
2022-11-12T01:07:13.034Z,99423.13
2022-11-12T01:10:02.326Z,99422.63
2022-11-12T01:12:51.309Z,99422.63
2022-11-12T01:15:45.318Z,99417.53
2022-11-12T01:18:34.506Z,99423.56
2022-11-12T01:21:26.724Z,99418.81
2022-11-12T01:24:18.521Z,99420.38
2022-11-12T01:27:08.115Z,99410.69
2022-11-12T01:29:57.352Z,99414.75
2022-11-12T01:32:46.719Z,99413.88
2022-11-12T01:35:35.638Z,99406.38
2022-11-12T01:38:25.112Z,99412.97
2022-11-12T01:41:22.326Z,99417.78
2022-11-12T01:44:22.596Z,99409.50
2022-11-12T01:47:21.701Z,99413.38
2022-11-12T01:50:20.752Z,99412.97
2022-11-12T01:53:14.526Z,99404.66
2022-11-12T01:56:06.443Z,99402.22
2022-11-12T01:59:04.723Z,99407.31
2022-11-12T02:01:53.862Z,99411.56
2022-11-12T02:04:45.644Z,99403.22
2022-11-12T02:07:35.930Z,99394.41
2022-11-12T02:10:25.760Z,99401.97
2022-11-12T02:13:27.285Z,99400.38
2022-11-12T02:16:18.604Z,99397.97
2022-11-12T02:19:11.485Z,99385.59
2022-11-12T02:22:02.698Z,99394.69
2022-11-12T02:24:51.712Z,99394.84
2022-11-12T02:27:40.968Z,99395.34
2022-11-12T02:30:36.861Z,99394.56
2022-11-12T02:33:25.687Z,99395.75
2022-11-12T02:36:14.379Z,99391.78
2022-11-12T02:39:06.451Z,99397.03
2022-11-12T02:41:55.355Z,99394.69
2022-11-12T02:44:44.226Z,99382.94
2022-11-12T02:47:33.514Z,99384.91
2022-11-12T02:50:22.809Z,99382.19
2022-11-12T02:53:11.371Z,99396.97
2022-11-12T02:56:03.461Z,99400.97
2022-11-12T02:58:51.980Z,99395.75
2022-11-12T03:01:40.799Z,99391.91
2022-11-12T03:04:29.753Z,99390.72
2022-11-12T03:07:18.432Z,99394.25
2022-11-12T03:10:08.969Z,99389.56
2022-11-12T03:13:02.844Z,99385.19
2022-11-12T03:15:52.105Z,99385.59
2022-11-12T03:18:40.948Z,99388.78
2022-11-12T03:21:29.862Z,99396.69
2022-11-12T03:24:18.990Z,99389.19
2022-11-12T03:27:08.187Z,99399.97
2022-11-12T03:29:59.844Z,99403.59
2022-11-12T03:32:48.196Z,99399.63
2022-11-12T03:35:37.517Z,99405.97
2022-11-12T03:38:26.753Z,99405.63
2022-11-12T03:41:15.866Z,99402.44
2022-11-12T03:44:05.003Z,99402.50
2022-11-12T03:46:56.177Z,99398.59
2022-11-12T03:49:45.203Z,99388.41
2022-11-12T03:52:34.116Z,99392.00
2022-11-12T03:55:25.654Z,99396.03
2022-11-12T03:58:14.264Z,99394.13
2022-11-12T04:01:02.974Z,99385.94
2022-11-12T04:03:54.868Z,99391.47
2022-11-12T04:06:56.239Z,99389.19
2022-11-12T04:09:45.375Z,99386.47
2022-11-12T04:12:46.385Z,99387.22
2022-11-12T04:15:35.558Z,99384.88
2022-11-12T04:18:37.120Z,99391.88
2022-11-12T04:21:41.808Z,99387.22
2022-11-12T04:24:45.915Z,99390.31
2022-11-12T04:27:37.104Z,99394.44
2022-11-12T04:30:23.663Z,99389.81
2022-11-12T04:33:12.265Z,99395.81
2022-11-12T04:36:01.196Z,99399.81
2022-11-12T04:38:53.014Z,99396.41
2022-11-12T04:41:54.124Z,99398.78
2022-11-12T04:44:55.674Z,99403.59
2022-11-12T04:47:46.483Z,99406.75
2022-11-12T04:50:35.460Z,99408.75
2022-11-12T04:53:25.313Z,99409.22
2022-11-12T04:56:17.071Z,99414.81
2022-11-12T04:59:06.388Z,99416.03
2022-11-12T05:01:55.393Z,99407.75
2022-11-12T05:04:44.309Z,99412.94
2022-11-12T05:07:35.266Z,99409.41
2022-11-12T05:10:24.430Z,99411.88
2022-11-12T05:13:16.265Z,99413.13
2022-11-12T05:16:05.007Z,99412.81
2022-11-12T05:18:53.943Z,99412.88
2022-11-12T05:21:55.689Z,99424.72
2022-11-12T05:24:46.823Z,99416.91
2022-11-12T05:27:36.313Z,99426.84
2022-11-12T05:30:28.024Z,99430.47
2022-11-12T05:33:16.855Z,99425.03
2022-11-12T05:36:05.841Z,99423.09
2022-11-12T05:38:55.176Z,99421.56
2022-11-12T05:42:06.183Z,99424.34
2022-11-12T05:44:53.318Z,99420.41
2022-11-12T05:47:44.689Z,99420.09
2022-11-12T05:50:51.239Z,99427.56
2022-11-12T05:53:42.632Z,99434.69
2022-11-12T05:56:31.774Z,99430.00
2022-11-12T05:59:20.426Z,99427.31
2022-11-12T06:02:09.244Z,99440.31
2022-11-12T06:05:00.717Z,99431.66
2022-11-12T06:07:49.439Z,99441.50
2022-11-12T06:10:38.611Z,99438.03
2022-11-12T06:13:29.053Z,99440.03
2022-11-12T06:16:18.381Z,99429.81
2022-11-12T06:19:08.153Z,99436.94
2022-11-12T06:21:59.720Z,99437.34
2022-11-12T06:24:48.947Z,99439.03
2022-11-12T06:27:37.689Z,99441.91
2022-11-12T06:30:27.103Z,99445.84
2022-11-12T06:33:16.426Z,99442.38
2022-11-12T06:36:08.133Z,99447.44
2022-11-12T06:38:59.297Z,99454.56
2022-11-12T06:41:47.927Z,99456.91
2022-11-12T06:44:36.742Z,99460.41
2022-11-12T06:47:25.712Z,99461.09
2022-11-12T06:50:14.639Z,99451.47
2022-11-12T06:53:03.652Z,99450.53
2022-11-12T06:55:55.943Z,99454.75
2022-11-12T06:58:44.885Z,99455.09
2022-11-12T07:01:33.584Z,99453.56
2022-11-12T07:04:22.239Z,99453.97
2022-11-12T07:07:11.237Z,99461.81
2022-11-12T07:10:00.142Z,99458.63
2022-11-12T07:12:53.529Z,99448.78
2022-11-12T07:15:42.791Z,99455.06
2022-11-12T07:18:32.585Z,99441.59
2022-11-12T07:21:23.530Z,99445.13
2022-11-12T07:24:13.054Z,99452.94
2022-11-12T07:27:02.194Z,99449.28
2022-11-12T07:29:53.975Z,99453.97
2022-11-12T07:32:46.053Z,99452.72
2022-11-12T07:35:37.010Z,99453.00
2022-11-12T07:38:26.252Z,99448.94
2022-11-12T07:41:18.187Z,99440.16
2022-11-12T07:44:07.449Z,99441.16
2022-11-12T07:46:58.838Z,99443.34
2022-11-12T07:49:47.174Z,99444.44
2022-11-12T07:52:36.261Z,99441.91
2022-11-12T07:55:25.300Z,99440.13
2022-11-12T07:58:16.544Z,99442.22
2022-11-12T08:01:11.812Z,99440.63
2022-11-12T08:04:05.204Z,99445.72
2022-11-12T08:06:54.477Z,99436.28
2022-11-12T08:09:43.322Z,99436.19
2022-11-12T08:12:32.600Z,99431.06
2022-11-12T08:15:21.562Z,99436.94
2022-11-12T08:18:10.866Z,99427.56
2022-11-12T08:21:08.100Z,99427.69
2022-11-12T08:23:57.075Z,99427.00
2022-11-12T08:26:46.201Z,99429.66
2022-11-12T08:29:35.149Z,99437.59
2022-11-12T08:32:24.591Z,99429.25
2022-11-12T08:35:13.434Z,99442.91
2022-11-12T08:38:07.873Z,99439.78
2022-11-12T08:40:56.801Z,99434.94
2022-11-12T08:43:45.870Z,99434.28
2022-11-12T08:46:34.729Z,99439.25
2022-11-12T08:49:23.978Z,99434.34
2022-11-12T08:52:13.092Z,99432.97
2022-11-12T08:55:05.332Z,99430.44
2022-11-12T08:57:54.794Z,99431.03
2022-11-12T09:00:46.913Z,99421.03
2022-11-12T09:03:36.149Z,99426.31
2022-11-12T09:06:27.096Z,99423.50
2022-11-12T09:09:16.160Z,99415.56
2022-11-12T09:12:15.057Z,99421.94
2022-11-12T09:15:36.203Z,99416.97
2022-11-12T09:18:20.995Z,99414.13
2022-11-12T09:21:14.273Z,99411.31
2022-11-12T09:24:02.885Z,99417.97
2022-11-12T09:26:56.112Z,99423.78
2022-11-12T09:29:47.975Z,99411.06
2022-11-12T09:32:37.294Z,99410.94
2022-11-12T09:35:26.783Z,99410.25
2022-11-12T09:38:18.500Z,99414.47
2022-11-12T09:41:27.229Z,99412.22
2022-11-12T09:44:20.545Z,99411.06
2022-11-12T09:47:20.586Z,99417.09
2022-11-12T09:50:24.729Z,99411.44
2022-11-12T09:53:21.239Z,99404.19
2022-11-12T09:56:15.132Z,99414.25
2022-11-12T09:59:04.361Z,99403.66
2022-11-12T10:02:23.557Z,99404.53
2022-11-12T10:05:29.410Z,99403.84
2022-11-12T10:08:41.439Z,99404.78
2022-11-12T10:12:12.496Z,99406.34
2022-11-12T10:15:51.068Z,99408.25
2022-11-12T10:18:57.852Z,99405.38
2022-11-12T10:21:56.409Z,99398.47
2022-11-12T10:24:47.867Z,99401.28
2022-11-12T10:27:43.593Z,99410.22
2022-11-12T10:30:32.988Z,99398.72
2022-11-12T10:33:22.100Z,99401.31
2022-11-12T10:36:28.120Z,99402.63
2022-11-12T10:39:40.816Z,99396.13
2022-11-12T10:42:29.928Z,99399.25
2022-11-12T10:45:24.828Z,99406.59
2022-11-12T10:48:29.087Z,99396.75
2022-11-12T10:51:33.675Z,99394.94
2022-11-12T10:54:33.400Z,99388.94
2022-11-12T10:57:27.793Z,99383.50
2022-11-12T11:00:23.772Z,99372.31
2022-11-12T11:03:24.333Z,99373.06
2022-11-12T11:06:26.092Z,99374.03
2022-11-12T11:09:22.791Z,99358.69
2022-11-12T11:12:26.913Z,99361.84
2022-11-12T11:15:24.693Z,99354.84
2022-11-12T11:18:16.150Z,99349.50
2022-11-12T11:21:41.790Z,99347.78
2022-11-12T11:24:52.911Z,99357.78
2022-11-12T11:28:02.608Z,99353.44
2022-11-12T11:30:56.951Z,99353.31
2022-11-12T11:33:51.574Z,99361.78
2022-11-12T11:36:49.007Z,99358.75
2022-11-12T11:39:51.809Z,99353.66
2022-11-12T11:43:06.398Z,99361.72
2022-11-12T11:46:15.150Z,99351.69
2022-11-12T11:49:25.855Z,99352.94
2022-11-12T11:52:34.396Z,99363.34
2022-11-12T11:55:48.983Z,99360.50
2022-11-12T11:59:14.981Z,99355.97
2022-11-12T12:02:27.689Z,99348.13
2022-11-12T12:05:34.914Z,99344.47
2022-11-12T12:08:39.450Z,99343.41
2022-11-12T12:11:37.657Z,99340.66
2022-11-12T12:14:43.214Z,99333.72
2022-11-12T12:17:49.863Z,99323.50
2022-11-12T12:20:50.782Z,99328.63
2022-11-12T12:23:48.917Z,99333.47
2022-11-12T12:26:48.370Z,99321.81
2022-11-12T12:29:47.251Z,99315.06
2022-11-12T12:32:40.630Z,99312.16
2022-11-12T12:35:34.747Z,99309.34
2022-11-12T12:38:34.696Z,99311.63
2022-11-12T12:41:29.299Z,99300.84
2022-11-12T12:44:20.587Z,99302.38
2022-11-12T12:47:14.971Z,99296.03
2022-11-12T12:50:07.455Z,99300.88
2022-11-12T12:53:09.104Z,99296.00
2022-11-12T12:55:59.606Z,99297.56
2022-11-12T12:58:50.640Z,99298.69
2022-11-12T13:01:42.044Z,99288.53
2022-11-12T13:04:56.593Z,99293.34
2022-11-12T13:07:48.548Z,99294.50
2022-11-12T13:10:53.924Z,99292.31
2022-11-12T13:13:43.106Z,99307.91
2022-11-12T13:17:03.160Z,99297.84
2022-11-12T13:20:39.452Z,99300.41
2022-11-12T13:24:00.293Z,99307.56
2022-11-12T13:26:56.657Z,99300.59
2022-11-12T13:29:48.509Z,99309.25
2022-11-12T13:32:45.229Z,99304.53
2022-11-12T13:35:37.194Z,99306.41
2022-11-12T13:38:26.695Z,99317.16
2022-11-12T13:41:41.077Z,99303.44
2022-11-12T13:44:31.047Z,99303.34
2022-11-12T13:47:24.707Z,99300.94
2022-11-12T13:50:21.166Z,99294.41
2022-11-12T13:53:12.050Z,99291.31
2022-11-12T13:56:01.682Z,99285.78
2022-11-12T13:58:51.006Z,99286.34
2022-11-12T14:01:41.267Z,99287.78
2022-11-12T14:04:30.403Z,99292.06
2022-11-12T14:07:42.722Z,99297.09
2022-11-12T14:10:46.253Z,99295.13
2022-11-12T14:13:53.372Z,99296.41
2022-11-12T14:17:02.023Z,99290.19
2022-11-12T14:20:27.870Z,99284.88
2022-11-12T14:23:24.824Z,99281.84
2022-11-12T14:26:15.982Z,99284.16
2022-11-12T14:29:05.298Z,99286.34
2022-11-12T14:32:05.293Z,99279.16
2022-11-12T14:34:54.265Z,99284.19
2022-11-12T14:37:51.896Z,99281.94
2022-11-12T14:40:52.908Z,99279.88
2022-11-12T14:43:46.662Z,99278.81
2022-11-12T14:46:48.922Z,99278.25
2022-11-12T14:49:44.687Z,99272.91
2022-11-12T14:52:38.884Z,99279.34
2022-11-12T14:55:31.499Z,99267.25
2022-11-12T14:58:25.228Z,99272.34
2022-11-12T15:04:41.730Z,99269.13
2022-11-12T15:07:33.794Z,99268.09
2022-11-12T15:10:37.111Z,99267.66
2022-11-12T15:13:30.304Z,99269.66
2022-11-12T15:16:26.825Z,99265.91
2022-11-12T15:19:24.011Z,99268.53
2022-11-12T15:22:24.322Z,99265.06
2022-11-12T15:25:21.420Z,99262.81
2022-11-12T15:28:24.300Z,99270.25
2022-11-12T15:31:22.640Z,99265.00
2022-11-12T15:34:38.786Z,99252.88
2022-11-12T15:37:30.980Z,99261.22
2022-11-12T15:40:23.718Z,99258.69
2022-11-12T15:43:19.369Z,99262.66
2022-11-12T15:46:08.809Z,99261.69
2022-11-12T15:49:00.738Z,99267.56
2022-11-12T15:51:49.731Z,99260.72
2022-11-12T15:54:41.189Z,99260.56
2022-11-12T15:57:35.674Z,99261.84
2022-11-12T16:00:29.271Z,99256.41
2022-11-12T16:03:21.510Z,99255.94
2022-11-12T16:06:16.213Z,99255.41
2022-11-12T16:09:05.402Z,99259.31
2022-11-12T16:11:57.578Z,99262.00
2022-11-12T16:14:46.788Z,99257.59
2022-11-12T16:17:35.498Z,99259.47
2022-11-12T16:20:26.918Z,99259.59
2022-11-12T16:23:18.678Z,99263.38
2022-11-12T16:26:12.233Z,99252.06
2022-11-12T16:29:01.334Z,99255.53
2022-11-12T16:31:50.281Z,99260.81
2022-11-12T16:34:39.380Z,99255.06
2022-11-12T16:37:28.870Z,99261.72
2022-11-12T16:40:23.335Z,99259.94
2022-11-12T16:43:12.309Z,99257.16
2022-11-12T16:46:01.965Z,99253.38
2022-11-12T16:48:50.588Z,99251.50
2022-11-12T16:51:40.006Z,99256.06
2022-11-12T16:54:29.138Z,99247.72
2022-11-12T16:57:20.794Z,99244.03
2022-11-12T17:00:16.705Z,99245.19
2022-11-12T17:03:06.055Z,99249.28
2022-11-12T17:05:55.301Z,99232.84
2022-11-12T17:08:44.992Z,99244.25
2022-11-12T17:11:34.205Z,99244.56
2022-11-12T17:14:28.521Z,99236.22
2022-11-12T17:17:17.897Z,99239.69
2022-11-12T17:20:08.906Z,99234.13
2022-11-12T17:22:58.057Z,99232.91
2022-11-12T17:25:46.713Z,99231.25
2022-11-12T17:28:38.232Z,99223.72
2022-11-12T17:31:30.160Z,99233.25
2022-11-12T17:34:18.903Z,99227.38
2022-11-12T17:37:07.815Z,99220.81
2022-11-12T17:39:56.981Z,99222.03
2022-11-12T17:42:45.886Z,99223.34
2022-11-12T17:45:34.776Z,99212.16
2022-11-12T17:48:27.652Z,99221.78
2022-11-12T17:51:19.257Z,99219.09
2022-11-12T17:54:08.692Z,99225.09
2022-11-12T17:56:57.763Z,99217.41
2022-11-12T17:59:46.447Z,99225.03
2022-11-12T18:02:35.156Z,99216.06
2022-11-12T18:05:28.540Z,99211.28
2022-11-12T18:08:17.849Z,99213.78
2022-11-12T18:11:06.489Z,99215.78
2022-11-12T18:13:55.547Z,99221.06
2022-11-12T18:16:45.234Z,99218.84
2022-11-12T18:19:34.491Z,99207.44
2022-11-12T18:22:26.422Z,99210.22
2022-11-12T18:25:16.126Z,99203.97
2022-11-12T18:28:04.851Z,99204.94
2022-11-12T18:30:53.571Z,99197.75
2022-11-12T18:33:42.698Z,99205.03
2022-11-12T18:36:31.601Z,99203.56
2022-11-12T18:39:23.142Z,99199.66
2022-11-12T18:42:12.425Z,99200.97
2022-11-12T18:45:01.700Z,99210.22
2022-11-12T18:47:50.624Z,99208.00
2022-11-12T18:50:39.498Z,99201.41
2022-11-12T18:53:29.277Z,99205.81
2022-11-12T18:56:23.589Z,99200.81
2022-11-12T18:59:13.294Z,99197.34
2022-11-12T19:02:02.593Z,99208.59
2022-11-12T19:04:51.488Z,99193.69
2022-11-12T19:07:40.842Z,99194.19
2022-11-12T19:10:29.895Z,99191.59
2022-11-12T19:13:21.486Z,99201.28
2022-11-12T19:16:14.303Z,99205.25
2022-11-12T19:19:03.148Z,99200.13
2022-11-12T19:21:52.139Z,99198.72
2022-11-12T19:24:41.036Z,99201.59
2022-11-12T19:27:29.861Z,99204.16
2022-11-12T19:30:21.520Z,99207.41
2022-11-12T19:33:10.215Z,99210.63
2022-11-12T19:36:03.592Z,99210.63
2022-11-12T19:38:59.826Z,99212.25
2022-11-12T19:41:48.611Z,99212.66
2022-11-12T19:44:37.760Z,99218.69
2022-11-12T19:47:29.309Z,99223.16
2022-11-12T19:50:24.325Z,99219.69
2022-11-12T19:53:13.694Z,99221.03
2022-11-12T19:56:04.737Z,99218.44
2022-11-12T19:58:55.157Z,99223.31
2022-11-12T20:01:44.397Z,99215.06
2022-11-12T20:04:39.102Z,99211.63
2022-11-12T20:07:27.782Z,99205.72
2022-11-12T20:10:17.220Z,99200.66
2022-11-12T20:13:07.341Z,99205.38
2022-11-12T20:15:56.336Z,99204.25
2022-11-12T20:18:50.701Z,99199.16
2022-11-12T20:21:42.882Z,99209.47
2022-11-12T20:24:32.038Z,99209.97
2022-11-12T20:27:21.015Z,99206.50
2022-11-12T20:30:12.649Z,99210.38
2022-11-12T20:33:01.093Z,99211.78
2022-11-12T20:35:49.730Z,99208.31
2022-11-12T20:38:43.956Z,99207.94
2022-11-12T20:41:33.203Z,99205.25
2022-11-12T20:44:21.958Z,99208.09
2022-11-12T20:47:11.163Z,99205.78
2022-11-12T20:49:59.797Z,99201.13
2022-11-12T20:52:48.490Z,99202.69
2022-11-12T20:55:40.133Z,99198.00
2022-11-12T20:58:29.924Z,99199.16
2022-11-12T21:01:22.028Z,99204.72
2022-11-12T21:04:13.869Z,99205.56
2022-11-12T21:07:05.461Z,99204.09
2022-11-12T21:09:54.555Z,99193.47
2022-11-12T21:12:45.761Z,99190.69
2022-11-12T21:15:34.866Z,99199.81
2022-11-12T21:18:28.264Z,99190.41
2022-11-12T21:21:21.512Z,99190.47
2022-11-12T21:24:13.516Z,99181.47
2022-11-12T21:27:02.448Z,99180.75
2022-11-12T21:29:54.252Z,99180.38
2022-11-12T21:32:43.409Z,99180.13
2022-11-12T21:35:32.154Z,99172.31
2022-11-12T21:38:20.915Z,99175.53
2022-11-12T21:41:12.472Z,99170.94
2022-11-12T21:44:01.992Z,99169.31
2022-11-12T21:46:53.542Z,99167.88
2022-11-12T21:49:42.077Z,99165.56
2022-11-12T21:52:31.001Z,99164.84
2022-11-12T21:55:20.422Z,99165.31
2022-11-12T21:58:09.285Z,99164.94
2022-11-12T22:00:58.427Z,99163.38
2022-11-12T22:03:51.108Z,99163.50
2022-11-12T22:06:41.305Z,99158.03
2022-11-12T22:09:30.238Z,99156.91
2022-11-12T22:12:19.775Z,99153.06
2022-11-12T22:15:10.311Z,99153.06
2022-11-12T22:18:02.211Z,99147.19
2022-11-12T22:21:01.655Z,99133.50
2022-11-12T22:23:50.591Z,99135.53
2022-11-12T22:26:39.860Z,99132.41
2022-11-12T22:29:29.191Z,99138.75
2022-11-12T22:32:18.036Z,99134.91
2022-11-12T22:35:07.939Z,99122.72
2022-11-12T22:38:00.541Z,99118.47
2022-11-12T22:40:49.182Z,99128.69
2022-11-12T22:43:38.840Z,99123.97
2022-11-12T22:46:30.485Z,99124.03
2022-11-12T22:49:19.475Z,99130.00
2022-11-12T22:52:08.643Z,99119.75
2022-11-12T22:55:00.108Z,99119.00
2022-11-12T22:57:49.266Z,99114.72
2022-11-12T23:00:37.784Z,99115.50
2022-11-12T23:03:26.752Z,99110.78
2022-11-12T23:06:15.591Z,99115.56
2022-11-12T23:09:05.079Z,99110.13
2022-11-12T23:11:57.082Z,99108.63
2022-11-12T23:14:46.252Z,99103.56
2022-11-12T23:17:34.907Z,99105.94
2022-11-12T23:20:23.937Z,99096.53
2022-11-12T23:23:12.826Z,99098.88
2022-11-12T23:26:07.339Z,99096.91
2022-11-12T23:28:59.338Z,99093.03
2022-11-12T23:31:47.968Z,99091.94
2022-11-12T23:34:37.104Z,99090.75
2022-11-12T23:37:26.131Z,99084.53
2022-11-12T23:40:15.585Z,99089.19
2022-11-12T23:43:04.503Z,99081.41
2022-11-12T23:45:55.888Z,99081.78
2022-11-12T23:48:45.091Z,99082.19
2022-11-12T23:51:34.278Z,99075.91
2022-11-12T23:54:23.082Z,99072.00
2022-11-12T23:57:12.247Z,99064.97
